sensor_id;sensor_type;location;lat;lon;timestamp;temperature;humidity
42743;DHT22;28397;44.552;-0.848;2022-09-27T00:00:41;13.60;99.90
42743;DHT22;28397;44.552;-0.848;2022-09-27T00:03:08;13.60;99.90
42743;DHT22;28397;44.552;-0.848;2022-09-27T00:05:34;13.60;99.90
42743;DHT22;28397;44.552;-0.848;2022-09-27T00:08:00;13.40;99.90
42743;DHT22;28397;44.552;-0.848;2022-09-27T00:10:26;13.30;99.90
42743;DHT22;28397;44.552;-0.848;2022-09-27T00:12:51;13.30;99.90
42743;DHT22;28397;44.552;-0.848;2022-09-27T00:15:17;13.30;99.90
42743;DHT22;28397;44.552;-0.848;2022-09-27T00:17:43;13.20;99.90
42743;DHT22;28397;44.552;-0.848;2022-09-27T00:20:09;13.10;99.90
42743;DHT22;28397;44.552;-0.848;2022-09-27T00:22:35;13.10;99.90
42743;DHT22;28397;44.552;-0.848;2022-09-27T00:25:02;13.10;99.90
42743;DHT22;28397;44.552;-0.848;2022-09-27T00:27:30;13.10;99.90
42743;DHT22;28397;44.552;-0.848;2022-09-27T00:29:56;13.10;99.90
42743;DHT22;28397;44.552;-0.848;2022-09-27T00:32:21;13.10;99.90
42743;DHT22;28397;44.552;-0.848;2022-09-27T00:34:47;13.20;99.90
42743;DHT22;28397;44.552;-0.848;2022-09-27T00:37:13;13.20;99.90
42743;DHT22;28397;44.552;-0.848;2022-09-27T00:39:38;13.30;99.90
42743;DHT22;28397;44.552;-0.848;2022-09-27T00:42:07;13.30;99.90
42743;DHT22;28397;44.552;-0.848;2022-09-27T00:50:26;13.30;99.90
42743;DHT22;28397;44.552;-0.848;2022-09-27T00:53:07;13.20;99.90
42743;DHT22;28397;44.552;-0.848;2022-09-27T00:55:53;13.20;99.90
42743;DHT22;28397;44.552;-0.848;2022-09-27T00:58:23;13.20;99.90
42743;DHT22;28397;44.552;-0.848;2022-09-27T01:00:56;13.10;99.90
42743;DHT22;28397;44.552;-0.848;2022-09-27T01:06:05;13.00;99.90
42743;DHT22;28397;44.552;-0.848;2022-09-27T01:08:32;13.00;99.90
42743;DHT22;28397;44.552;-0.848;2022-09-27T01:19:20;13.00;99.90
42743;DHT22;28397;44.552;-0.848;2022-09-27T01:24:47;12.90;99.90
42743;DHT22;28397;44.552;-0.848;2022-09-27T01:30:20;12.90;99.90
42743;DHT22;28397;44.552;-0.848;2022-09-27T01:33:05;12.80;99.90
42743;DHT22;28397;44.552;-0.848;2022-09-27T01:41:16;12.70;99.90
42743;DHT22;28397;44.552;-0.848;2022-09-27T01:44:20;12.60;99.90
42743;DHT22;28397;44.552;-0.848;2022-09-27T01:47:00;12.60;99.90
42743;DHT22;28397;44.552;-0.848;2022-09-27T01:49:40;12.50;99.90
42743;DHT22;28397;44.552;-0.848;2022-09-27T01:52:09;12.50;99.90
42743;DHT22;28397;44.552;-0.848;2022-09-27T01:54:41;12.40;99.90
42743;DHT22;28397;44.552;-0.848;2022-09-27T01:57:10;12.50;99.90
42743;DHT22;28397;44.552;-0.848;2022-09-27T02:02:45;12.50;99.90
42743;DHT22;28397;44.552;-0.848;2022-09-27T02:05:12;12.40;99.90
42743;DHT22;28397;44.552;-0.848;2022-09-27T02:07:56;12.50;99.90
42743;DHT22;28397;44.552;-0.848;2022-09-27T02:10:30;12.50;99.90
42743;DHT22;28397;44.552;-0.848;2022-09-27T02:13:04;12.50;99.90
42743;DHT22;28397;44.552;-0.848;2022-09-27T02:15:44;12.50;99.90
42743;DHT22;28397;44.552;-0.848;2022-09-27T02:18:19;12.50;99.90
42743;DHT22;28397;44.552;-0.848;2022-09-27T02:20:57;12.50;99.90
42743;DHT22;28397;44.552;-0.848;2022-09-27T02:28:47;12.40;99.90
42743;DHT22;28397;44.552;-0.848;2022-09-27T02:31:16;12.40;99.90
42743;DHT22;28397;44.552;-0.848;2022-09-27T02:36:37;12.50;99.90
42743;DHT22;28397;44.552;-0.848;2022-09-27T02:39:03;12.50;99.90
42743;DHT22;28397;44.552;-0.848;2022-09-27T02:41:29;12.50;99.90
42743;DHT22;28397;44.552;-0.848;2022-09-27T02:43:57;12.60;99.90
42743;DHT22;28397;44.552;-0.848;2022-09-27T02:55:33;12.70;99.90
42743;DHT22;28397;44.552;-0.848;2022-09-27T03:00:55;12.70;99.90
42743;DHT22;28397;44.552;-0.848;2022-09-27T03:03:43;12.70;99.90
42743;DHT22;28397;44.552;-0.848;2022-09-27T03:06:13;12.60;99.90
42743;DHT22;28397;44.552;-0.848;2022-09-27T03:08:40;12.60;99.90
42743;DHT22;28397;44.552;-0.848;2022-09-27T03:11:06;12.60;99.90
42743;DHT22;28397;44.552;-0.848;2022-09-27T03:13:32;12.50;99.90
42743;DHT22;28397;44.552;-0.848;2022-09-27T03:15:59;12.50;99.90
42743;DHT22;28397;44.552;-0.848;2022-09-27T03:18:25;12.50;99.90
42743;DHT22;28397;44.552;-0.848;2022-09-27T03:20:52;12.50;99.90
42743;DHT22;28397;44.552;-0.848;2022-09-27T03:23:19;12.40;99.90
42743;DHT22;28397;44.552;-0.848;2022-09-27T03:25:45;12.40;99.90
42743;DHT22;28397;44.552;-0.848;2022-09-27T03:28:11;12.40;99.90
42743;DHT22;28397;44.552;-0.848;2022-09-27T03:30:37;12.40;99.90
42743;DHT22;28397;44.552;-0.848;2022-09-27T03:33:03;12.30;99.90
42743;DHT22;28397;44.552;-0.848;2022-09-27T03:35:29;12.30;99.90
42743;DHT22;28397;44.552;-0.848;2022-09-27T03:37:54;12.30;99.90
42743;DHT22;28397;44.552;-0.848;2022-09-27T03:40:20;12.40;99.90
42743;DHT22;28397;44.552;-0.848;2022-09-27T03:42:46;12.40;99.90
42743;DHT22;28397;44.552;-0.848;2022-09-27T03:45:14;12.40;99.90
42743;DHT22;28397;44.552;-0.848;2022-09-27T03:47:40;12.40;99.90
42743;DHT22;28397;44.552;-0.848;2022-09-27T03:50:07;12.40;99.90
42743;DHT22;28397;44.552;-0.848;2022-09-27T03:52:33;12.50;99.90
42743;DHT22;28397;44.552;-0.848;2022-09-27T03:54:59;12.40;99.90
42743;DHT22;28397;44.552;-0.848;2022-09-27T03:57:25;12.50;99.90
42743;DHT22;28397;44.552;-0.848;2022-09-27T03:59:50;12.50;99.90
42743;DHT22;28397;44.552;-0.848;2022-09-27T04:02:16;12.50;99.90
42743;DHT22;28397;44.552;-0.848;2022-09-27T04:04:42;12.50;99.90
42743;DHT22;28397;44.552;-0.848;2022-09-27T04:07:08;12.50;99.90
42743;DHT22;28397;44.552;-0.848;2022-09-27T04:09:35;12.50;99.90
42743;DHT22;28397;44.552;-0.848;2022-09-27T04:12:02;12.50;99.90
42743;DHT22;28397;44.552;-0.848;2022-09-27T04:14:28;12.50;99.90
42743;DHT22;28397;44.552;-0.848;2022-09-27T04:16:54;12.50;99.90
42743;DHT22;28397;44.552;-0.848;2022-09-27T04:19:20;12.40;99.90
42743;DHT22;28397;44.552;-0.848;2022-09-27T04:21:45;12.50;99.90
42743;DHT22;28397;44.552;-0.848;2022-09-27T04:24:11;12.50;99.90
42743;DHT22;28397;44.552;-0.848;2022-09-27T04:26:37;12.50;99.90
42743;DHT22;28397;44.552;-0.848;2022-09-27T04:29:04;12.50;99.90
42743;DHT22;28397;44.552;-0.848;2022-09-27T04:31:30;12.50;99.90
42743;DHT22;28397;44.552;-0.848;2022-09-27T04:33:56;12.50;99.90
42743;DHT22;28397;44.552;-0.848;2022-09-27T04:36:25;12.50;99.90
42743;DHT22;28397;44.552;-0.848;2022-09-27T04:38:51;12.60;99.90
42743;DHT22;28397;44.552;-0.848;2022-09-27T04:41:18;12.50;99.90
42743;DHT22;28397;44.552;-0.848;2022-09-27T04:43:44;12.60;99.90
42743;DHT22;28397;44.552;-0.848;2022-09-27T04:46:09;12.60;99.90
42743;DHT22;28397;44.552;-0.848;2022-09-27T04:48:35;12.50;99.90
42743;DHT22;28397;44.552;-0.848;2022-09-27T04:51:02;12.50;99.90
42743;DHT22;28397;44.552;-0.848;2022-09-27T04:53:29;12.60;99.90
42743;DHT22;28397;44.552;-0.848;2022-09-27T04:55:55;12.60;99.90
42743;DHT22;28397;44.552;-0.848;2022-09-27T04:58:21;12.70;99.90
42743;DHT22;28397;44.552;-0.848;2022-09-27T05:00:48;12.70;99.90
42743;DHT22;28397;44.552;-0.848;2022-09-27T05:03:16;12.70;99.90
42743;DHT22;28397;44.552;-0.848;2022-09-27T05:05:41;12.60;99.90
42743;DHT22;28397;44.552;-0.848;2022-09-27T05:08:07;12.60;99.90
42743;DHT22;28397;44.552;-0.848;2022-09-27T05:10:33;12.50;99.90
42743;DHT22;28397;44.552;-0.848;2022-09-27T05:12:58;12.50;99.90
42743;DHT22;28397;44.552;-0.848;2022-09-27T05:15:24;12.40;99.90
42743;DHT22;28397;44.552;-0.848;2022-09-27T05:17:50;12.40;99.90
42743;DHT22;28397;44.552;-0.848;2022-09-27T05:20:17;12.40;99.90
42743;DHT22;28397;44.552;-0.848;2022-09-27T05:22:44;12.30;99.90
42743;DHT22;28397;44.552;-0.848;2022-09-27T05:25:09;12.30;99.90
42743;DHT22;28397;44.552;-0.848;2022-09-27T05:27:35;12.40;99.90
42743;DHT22;28397;44.552;-0.848;2022-09-27T05:30:01;12.40;99.90
42743;DHT22;28397;44.552;-0.848;2022-09-27T05:32:27;12.40;99.90
42743;DHT22;28397;44.552;-0.848;2022-09-27T05:34:53;12.40;99.90
42743;DHT22;28397;44.552;-0.848;2022-09-27T05:37:19;12.40;99.90
42743;DHT22;28397;44.552;-0.848;2022-09-27T05:39:45;12.60;99.90
42743;DHT22;28397;44.552;-0.848;2022-09-27T05:42:11;12.60;99.90
42743;DHT22;28397;44.552;-0.848;2022-09-27T05:44:40;12.60;99.90
42743;DHT22;28397;44.552;-0.848;2022-09-27T05:47:06;12.60;99.90
42743;DHT22;28397;44.552;-0.848;2022-09-27T05:49:32;12.60;99.90
42743;DHT22;28397;44.552;-0.848;2022-09-27T05:51:59;12.60;99.90
42743;DHT22;28397;44.552;-0.848;2022-09-27T05:54:25;12.60;99.90
42743;DHT22;28397;44.552;-0.848;2022-09-27T05:56:55;12.60;99.90
42743;DHT22;28397;44.552;-0.848;2022-09-27T05:59:26;12.60;99.90
42743;DHT22;28397;44.552;-0.848;2022-09-27T06:01:52;12.60;99.90
42743;DHT22;28397;44.552;-0.848;2022-09-27T06:04:19;12.50;99.90
42743;DHT22;28397;44.552;-0.848;2022-09-27T06:06:46;12.50;99.90
42743;DHT22;28397;44.552;-0.848;2022-09-27T06:09:13;12.50;99.90
42743;DHT22;28397;44.552;-0.848;2022-09-27T06:11:41;12.40;99.90
42743;DHT22;28397;44.552;-0.848;2022-09-27T06:14:10;12.40;99.90
42743;DHT22;28397;44.552;-0.848;2022-09-27T06:16:36;12.40;99.90
42743;DHT22;28397;44.552;-0.848;2022-09-27T06:19:01;12.50;99.90
42743;DHT22;28397;44.552;-0.848;2022-09-27T06:21:29;12.60;99.90
42743;DHT22;28397;44.552;-0.848;2022-09-27T06:23:57;12.60;99.90
42743;DHT22;28397;44.552;-0.848;2022-09-27T06:26:25;12.70;99.90
42743;DHT22;28397;44.552;-0.848;2022-09-27T06:28:52;12.80;99.90
42743;DHT22;28397;44.552;-0.848;2022-09-27T06:31:18;12.80;99.90
42743;DHT22;28397;44.552;-0.848;2022-09-27T06:33:44;12.90;99.90
42743;DHT22;28397;44.552;-0.848;2022-09-27T06:36:10;12.90;99.90
42743;DHT22;28397;44.552;-0.848;2022-09-27T06:38:36;12.90;99.90
42743;DHT22;28397;44.552;-0.848;2022-09-27T06:41:04;12.90;99.90
42743;DHT22;28397;44.552;-0.848;2022-09-27T06:43:31;12.80;99.90
42743;DHT22;28397;44.552;-0.848;2022-09-27T06:46:02;12.90;99.90
42743;DHT22;28397;44.552;-0.848;2022-09-27T06:48:32;12.90;99.90
42743;DHT22;28397;44.552;-0.848;2022-09-27T06:50:58;12.90;99.90
42743;DHT22;28397;44.552;-0.848;2022-09-27T06:53:25;12.80;99.90
42743;DHT22;28397;44.552;-0.848;2022-09-27T06:55:51;12.90;99.90
42743;DHT22;28397;44.552;-0.848;2022-09-27T06:58:17;13.20;99.90
42743;DHT22;28397;44.552;-0.848;2022-09-27T07:01:02;13.40;99.90
42743;DHT22;28397;44.552;-0.848;2022-09-27T07:03:28;13.70;99.90
42743;DHT22;28397;44.552;-0.848;2022-09-27T07:06:01;13.60;99.90
42743;DHT22;28397;44.552;-0.848;2022-09-27T07:08:28;13.60;99.90
42743;DHT22;28397;44.552;-0.848;2022-09-27T07:11:05;13.60;99.90
42743;DHT22;28397;44.552;-0.848;2022-09-27T07:13:31;13.70;99.90
42743;DHT22;28397;44.552;-0.848;2022-09-27T07:15:59;13.80;99.90
42743;DHT22;28397;44.552;-0.848;2022-09-27T07:18:26;13.90;99.90
42743;DHT22;28397;44.552;-0.848;2022-09-27T07:20:52;13.80;99.90
42743;DHT22;28397;44.552;-0.848;2022-09-27T07:23:18;13.90;99.90
42743;DHT22;28397;44.552;-0.848;2022-09-27T07:25:45;14.00;99.90
42743;DHT22;28397;44.552;-0.848;2022-09-27T07:28:16;14.10;99.90
42743;DHT22;28397;44.552;-0.848;2022-09-27T07:30:43;14.10;99.90
42743;DHT22;28397;44.552;-0.848;2022-09-27T07:33:09;14.30;99.90
42743;DHT22;28397;44.552;-0.848;2022-09-27T07:35:39;14.40;99.90
42743;DHT22;28397;44.552;-0.848;2022-09-27T07:38:05;14.70;99.90
42743;DHT22;28397;44.552;-0.848;2022-09-27T07:40:35;17.40;99.90
42743;DHT22;28397;44.552;-0.848;2022-09-27T07:43:01;16.50;99.90
42743;DHT22;28397;44.552;-0.848;2022-09-27T07:45:27;18.90;99.90
42743;DHT22;28397;44.552;-0.848;2022-09-27T07:47:53;19.30;99.90
42743;DHT22;28397;44.552;-0.848;2022-09-27T07:50:19;19.60;99.90
42743;DHT22;28397;44.552;-0.848;2022-09-27T07:52:48;23.30;99.90
42743;DHT22;28397;44.552;-0.848;2022-09-27T07:55:18;24.60;99.90
42743;DHT22;28397;44.552;-0.848;2022-09-27T07:57:44;23.50;99.90
42743;DHT22;28397;44.552;-0.848;2022-09-27T08:00:12;25.50;99.90
42743;DHT22;28397;44.552;-0.848;2022-09-27T08:02:40;27.00;99.90
42743;DHT22;28397;44.552;-0.848;2022-09-27T08:05:06;27.70;99.90
42743;DHT22;28397;44.552;-0.848;2022-09-27T08:07:32;26.40;99.70
42743;DHT22;28397;44.552;-0.848;2022-09-27T08:09:58;23.90;99.90
42743;DHT22;28397;44.552;-0.848;2022-09-27T08:12:24;22.30;99.90
42743;DHT22;28397;44.552;-0.848;2022-09-27T08:14:50;20.40;99.90
42743;DHT22;28397;44.552;-0.848;2022-09-27T08:17:18;20.30;99.90
42743;DHT22;28397;44.552;-0.848;2022-09-27T08:19:44;20.00;99.90
42743;DHT22;28397;44.552;-0.848;2022-09-27T08:22:10;19.70;99.90
42743;DHT22;28397;44.552;-0.848;2022-09-27T08:24:41;19.20;99.90
42743;DHT22;28397;44.552;-0.848;2022-09-27T08:27:07;19.50;99.90
42743;DHT22;28397;44.552;-0.848;2022-09-27T08:29:36;19.10;99.90
42743;DHT22;28397;44.552;-0.848;2022-09-27T08:32:02;18.90;99.90
42743;DHT22;28397;44.552;-0.848;2022-09-27T08:34:28;19.20;99.90
42743;DHT22;28397;44.552;-0.848;2022-09-27T08:36:54;19.60;99.90
42743;DHT22;28397;44.552;-0.848;2022-09-27T08:39:21;21.90;99.90
42743;DHT22;28397;44.552;-0.848;2022-09-27T08:47:28;21.00;99.90
42743;DHT22;28397;44.552;-0.848;2022-09-27T08:49:58;21.10;99.90
42743;DHT22;28397;44.552;-0.848;2022-09-27T08:53:13;20.00;99.90
42743;DHT22;28397;44.552;-0.848;2022-09-27T08:55:37;19.20;99.90
42743;DHT22;28397;44.552;-0.848;2022-09-27T08:58:18;18.70;99.90
42743;DHT22;28397;44.552;-0.848;2022-09-27T09:00:49;18.40;99.90
42743;DHT22;28397;44.552;-0.848;2022-09-27T09:03:18;18.70;99.90
42743;DHT22;28397;44.552;-0.848;2022-09-27T09:15:12;18.20;99.90
42743;DHT22;28397;44.552;-0.848;2022-09-27T09:17:44;17.90;99.90
42743;DHT22;28397;44.552;-0.848;2022-09-27T09:32:59;18.40;99.90
42743;DHT22;28397;44.552;-0.848;2022-09-27T09:35:14;18.80;99.90
42743;DHT22;28397;44.552;-0.848;2022-09-27T09:37:46;18.80;99.90
42743;DHT22;28397;44.552;-0.848;2022-09-27T09:42:59;20.00;99.90
42743;DHT22;28397;44.552;-0.848;2022-09-27T09:45:27;19.90;99.90
42743;DHT22;28397;44.552;-0.848;2022-09-27T09:48:22;21.70;99.90
42743;DHT22;28397;44.552;-0.848;2022-09-27T09:50:56;22.80;99.90
42743;DHT22;28397;44.552;-0.848;2022-09-27T09:58:59;28.40;99.90
42743;DHT22;28397;44.552;-0.848;2022-09-27T10:01:40;28.70;99.80
42743;DHT22;28397;44.552;-0.848;2022-09-27T10:04:17;28.40;99.50
42743;DHT22;28397;44.552;-0.848;2022-09-27T10:06:43;27.50;99.70
42743;DHT22;28397;44.552;-0.848;2022-09-27T10:09:11;30.60;96.90
42743;DHT22;28397;44.552;-0.848;2022-09-27T10:11:41;27.10;98.10
42743;DHT22;28397;44.552;-0.848;2022-09-27T10:14:16;25.60;99.90
42743;DHT22;28397;44.552;-0.848;2022-09-27T10:16:45;25.50;99.60
42743;DHT22;28397;44.552;-0.848;2022-09-27T10:19:15;23.70;99.40
42743;DHT22;28397;44.552;-0.848;2022-09-27T10:21:42;24.20;99.90
42743;DHT22;28397;44.552;-0.848;2022-09-27T10:24:16;24.80;99.90
42743;DHT22;28397;44.552;-0.848;2022-09-27T10:26:43;24.90;99.80
42743;DHT22;28397;44.552;-0.848;2022-09-27T10:31:45;22.30;99.90
42743;DHT22;28397;44.552;-0.848;2022-09-27T10:34:35;23.10;99.90
42743;DHT22;28397;44.552;-0.848;2022-09-27T10:37:06;23.60;99.90
42743;DHT22;28397;44.552;-0.848;2022-09-27T10:39:40;23.20;99.90
42743;DHT22;28397;44.552;-0.848;2022-09-27T10:44:49;22.10;99.90
42743;DHT22;28397;44.552;-0.848;2022-09-27T10:47:21;21.70;99.90
42743;DHT22;28397;44.552;-0.848;2022-09-27T10:49:48;21.00;99.90
42743;DHT22;28397;44.552;-0.848;2022-09-27T10:52:20;21.90;99.90
42743;DHT22;28397;44.552;-0.848;2022-09-27T10:55:04;22.00;99.90
42743;DHT22;28397;44.552;-0.848;2022-09-27T10:57:32;21.30;99.90
42743;DHT22;28397;44.552;-0.848;2022-09-27T11:00:05;21.60;99.90
42743;DHT22;28397;44.552;-0.848;2022-09-27T11:02:36;22.00;99.90
42743;DHT22;28397;44.552;-0.848;2022-09-27T11:05:12;22.50;99.90
42743;DHT22;28397;44.552;-0.848;2022-09-27T11:07:53;22.80;99.90
42743;DHT22;28397;44.552;-0.848;2022-09-27T11:10:30;21.20;99.90
42743;DHT22;28397;44.552;-0.848;2022-09-27T11:13:17;21.10;99.90
42743;DHT22;28397;44.552;-0.848;2022-09-27T11:21:37;19.90;99.90
42743;DHT22;28397;44.552;-0.848;2022-09-27T11:26:54;20.70;99.90
42743;DHT22;28397;44.552;-0.848;2022-09-27T11:29:55;20.50;99.90
42743;DHT22;28397;44.552;-0.848;2022-09-27T11:32:32;20.50;99.90
42743;DHT22;28397;44.552;-0.848;2022-09-27T11:35:22;19.90;99.90
42743;DHT22;28397;44.552;-0.848;2022-09-27T11:46:32;19.70;99.90
42743;DHT22;28397;44.552;-0.848;2022-09-27T11:54:41;21.10;99.90
42743;DHT22;28397;44.552;-0.848;2022-09-27T11:57:23;21.20;99.90
42743;DHT22;28397;44.552;-0.848;2022-09-27T12:08:03;21.40;99.90
42743;DHT22;28397;44.552;-0.848;2022-09-27T12:10:30;21.80;99.90
42743;DHT22;28397;44.552;-0.848;2022-09-27T12:12:57;21.60;99.90
42743;DHT22;28397;44.552;-0.848;2022-09-27T12:15:27;21.50;99.90
42743;DHT22;28397;44.552;-0.848;2022-09-27T12:20:35;21.10;99.90
42743;DHT22;28397;44.552;-0.848;2022-09-27T12:23:05;21.10;99.90
42743;DHT22;28397;44.552;-0.848;2022-09-27T12:25:36;21.00;99.90
42743;DHT22;28397;44.552;-0.848;2022-09-27T12:30:56;21.40;99.90
42743;DHT22;28397;44.552;-0.848;2022-09-27T12:33:36;21.20;99.90
42743;DHT22;28397;44.552;-0.848;2022-09-27T12:36:06;20.60;99.90
42743;DHT22;28397;44.552;-0.848;2022-09-27T12:38:44;21.10;99.90
42743;DHT22;28397;44.552;-0.848;2022-09-27T12:41:17;21.30;99.90
42743;DHT22;28397;44.552;-0.848;2022-09-27T12:43:46;21.40;99.90
42743;DHT22;28397;44.552;-0.848;2022-09-27T12:46:26;21.00;99.90
42743;DHT22;28397;44.552;-0.848;2022-09-27T12:51:58;20.40;99.90
42743;DHT22;28397;44.552;-0.848;2022-09-27T12:57:03;20.50;99.90
42743;DHT22;28397;44.552;-0.848;2022-09-27T13:00:09;20.40;99.90
42743;DHT22;28397;44.552;-0.848;2022-09-27T13:13:30;20.10;99.90
42743;DHT22;28397;44.552;-0.848;2022-09-27T13:16:00;20.30;99.90
42743;DHT22;28397;44.552;-0.848;2022-09-27T13:21:05;20.60;99.90
42743;DHT22;28397;44.552;-0.848;2022-09-27T13:26:01;20.90;99.90
42743;DHT22;28397;44.552;-0.848;2022-09-27T13:33:48;21.50;99.90
42743;DHT22;28397;44.552;-0.848;2022-09-27T13:39:03;20.90;99.90
42743;DHT22;28397;44.552;-0.848;2022-09-27T13:44:39;20.40;99.90
42743;DHT22;28397;44.552;-0.848;2022-09-27T13:52:42;20.30;99.90
42743;DHT22;28397;44.552;-0.848;2022-09-27T13:55:44;20.20;99.90
42743;DHT22;28397;44.552;-0.848;2022-09-27T14:01:29;19.90;99.90
42743;DHT22;28397;44.552;-0.848;2022-09-27T14:04:12;20.40;99.90
42743;DHT22;28397;44.552;-0.848;2022-09-27T14:06:43;20.50;99.90
42743;DHT22;28397;44.552;-0.848;2022-09-27T14:09:20;20.60;99.90
42743;DHT22;28397;44.552;-0.848;2022-09-27T14:11:52;20.40;99.90
42743;DHT22;28397;44.552;-0.848;2022-09-27T14:14:23;20.50;99.90
42743;DHT22;28397;44.552;-0.848;2022-09-27T14:16:50;20.50;99.90
42743;DHT22;28397;44.552;-0.848;2022-09-27T14:19:21;20.70;99.90
42743;DHT22;28397;44.552;-0.848;2022-09-27T14:21:50;20.90;99.90
42743;DHT22;28397;44.552;-0.848;2022-09-27T14:27:15;20.50;99.90
42743;DHT22;28397;44.552;-0.848;2022-09-27T14:29:57;20.30;99.90
42743;DHT22;28397;44.552;-0.848;2022-09-27T14:32:27;20.30;99.90
42743;DHT22;28397;44.552;-0.848;2022-09-27T14:37:29;18.80;99.90
42743;DHT22;28397;44.552;-0.848;2022-09-27T14:39:58;18.50;99.90
42743;DHT22;28397;44.552;-0.848;2022-09-27T14:42:26;18.40;99.90
42743;DHT22;28397;44.552;-0.848;2022-09-27T14:44:56;18.60;99.90
42743;DHT22;28397;44.552;-0.848;2022-09-27T14:47:26;18.50;99.90
42743;DHT22;28397;44.552;-0.848;2022-09-27T14:49:59;18.80;99.90
42743;DHT22;28397;44.552;-0.848;2022-09-27T14:52:32;18.40;99.90
42743;DHT22;28397;44.552;-0.848;2022-09-27T14:55:00;18.60;99.90
42743;DHT22;28397;44.552;-0.848;2022-09-27T14:57:29;18.90;99.90
42743;DHT22;28397;44.552;-0.848;2022-09-27T14:59:58;18.80;99.90
42743;DHT22;28397;44.552;-0.848;2022-09-27T15:02:26;18.70;99.90
42743;DHT22;28397;44.552;-0.848;2022-09-27T15:04:53;18.60;99.90
42743;DHT22;28397;44.552;-0.848;2022-09-27T15:07:19;18.90;99.90
42743;DHT22;28397;44.552;-0.848;2022-09-27T15:09:48;18.90;99.90
42743;DHT22;28397;44.552;-0.848;2022-09-27T15:12:23;18.60;99.90
42743;DHT22;28397;44.552;-0.848;2022-09-27T15:14:50;18.40;99.90
42743;DHT22;28397;44.552;-0.848;2022-09-27T15:17:18;18.40;99.90
42743;DHT22;28397;44.552;-0.848;2022-09-27T15:20:02;18.20;99.90
42743;DHT22;28397;44.552;-0.848;2022-09-27T15:22:35;18.40;99.90
42743;DHT22;28397;44.552;-0.848;2022-09-27T15:25:10;18.30;99.90
42743;DHT22;28397;44.552;-0.848;2022-09-27T15:27:39;18.40;99.90
42743;DHT22;28397;44.552;-0.848;2022-09-27T15:30:05;18.30;99.90
42743;DHT22;28397;44.552;-0.848;2022-09-27T15:32:31;18.10;99.90
42743;DHT22;28397;44.552;-0.848;2022-09-27T15:35:06;17.90;99.90
42743;DHT22;28397;44.552;-0.848;2022-09-27T15:37:38;18.10;99.90
42743;DHT22;28397;44.552;-0.848;2022-09-27T15:43:00;18.70;99.90
42743;DHT22;28397;44.552;-0.848;2022-09-27T15:45:35;18.60;99.90
42743;DHT22;28397;44.552;-0.848;2022-09-27T15:48:13;18.20;99.90
42743;DHT22;28397;44.552;-0.848;2022-09-27T15:50:39;18.30;99.90
42743;DHT22;28397;44.552;-0.848;2022-09-27T15:53:06;18.20;99.90
42743;DHT22;28397;44.552;-0.848;2022-09-27T15:55:38;18.40;99.90
42743;DHT22;28397;44.552;-0.848;2022-09-27T15:58:06;18.30;99.90
42743;DHT22;28397;44.552;-0.848;2022-09-27T16:00:34;18.30;99.90
42743;DHT22;28397;44.552;-0.848;2022-09-27T16:03:01;18.30;99.90
42743;DHT22;28397;44.552;-0.848;2022-09-27T16:05:27;18.40;99.90
42743;DHT22;28397;44.552;-0.848;2022-09-27T16:07:54;18.50;99.90
42743;DHT22;28397;44.552;-0.848;2022-09-27T16:10:23;18.40;99.90
42743;DHT22;28397;44.552;-0.848;2022-09-27T16:12:51;18.70;99.90
42743;DHT22;28397;44.552;-0.848;2022-09-27T16:15:16;18.80;99.90
42743;DHT22;28397;44.552;-0.848;2022-09-27T16:17:42;18.90;99.90
42743;DHT22;28397;44.552;-0.848;2022-09-27T16:20:18;18.80;99.90
42743;DHT22;28397;44.552;-0.848;2022-09-27T16:22:44;18.70;99.90
42743;DHT22;28397;44.552;-0.848;2022-09-27T16:25:10;18.60;99.90
42743;DHT22;28397;44.552;-0.848;2022-09-27T16:27:36;18.50;99.90
42743;DHT22;28397;44.552;-0.848;2022-09-27T16:30:02;18.40;99.90
42743;DHT22;28397;44.552;-0.848;2022-09-27T16:32:28;18.30;99.90
42743;DHT22;28397;44.552;-0.848;2022-09-27T16:34:54;18.30;99.90
42743;DHT22;28397;44.552;-0.848;2022-09-27T16:37:21;18.30;99.90
42743;DHT22;28397;44.552;-0.848;2022-09-27T16:39:47;18.10;99.90
42743;DHT22;28397;44.552;-0.848;2022-09-27T16:42:13;18.10;99.90
42743;DHT22;28397;44.552;-0.848;2022-09-27T16:44:39;18.20;99.90
42743;DHT22;28397;44.552;-0.848;2022-09-27T16:47:05;18.10;99.90
42743;DHT22;28397;44.552;-0.848;2022-09-27T16:49:34;18.10;99.90
42743;DHT22;28397;44.552;-0.848;2022-09-27T16:52:18;18.00;99.90
42743;DHT22;28397;44.552;-0.848;2022-09-27T16:54:44;17.90;99.90
42743;DHT22;28397;44.552;-0.848;2022-09-27T16:57:09;17.80;99.90
42743;DHT22;28397;44.552;-0.848;2022-09-27T16:59:35;17.80;99.90
42743;DHT22;28397;44.552;-0.848;2022-09-27T17:02:01;17.70;99.90
42743;DHT22;28397;44.552;-0.848;2022-09-27T17:04:30;17.70;99.90
42743;DHT22;28397;44.552;-0.848;2022-09-27T17:06:56;17.60;99.90
42743;DHT22;28397;44.552;-0.848;2022-09-27T17:09:22;17.60;99.90
42743;DHT22;28397;44.552;-0.848;2022-09-27T17:11:48;17.50;99.90
42743;DHT22;28397;44.552;-0.848;2022-09-27T17:14:14;17.50;99.90
42743;DHT22;28397;44.552;-0.848;2022-09-27T17:16:45;17.40;99.90
42743;DHT22;28397;44.552;-0.848;2022-09-27T17:19:11;17.40;99.90
42743;DHT22;28397;44.552;-0.848;2022-09-27T17:21:38;17.30;99.90
42743;DHT22;28397;44.552;-0.848;2022-09-27T17:24:04;17.30;99.90
42743;DHT22;28397;44.552;-0.848;2022-09-27T17:26:30;17.20;99.90
42743;DHT22;28397;44.552;-0.848;2022-09-27T17:28:57;17.30;99.90
42743;DHT22;28397;44.552;-0.848;2022-09-27T17:31:25;17.20;99.90
42743;DHT22;28397;44.552;-0.848;2022-09-27T17:33:51;17.20;99.90
42743;DHT22;28397;44.552;-0.848;2022-09-27T17:36:23;17.20;99.90
42743;DHT22;28397;44.552;-0.848;2022-09-27T17:38:50;17.10;99.90
42743;DHT22;28397;44.552;-0.848;2022-09-27T17:41:19;17.10;99.90
42743;DHT22;28397;44.552;-0.848;2022-09-27T17:43:46;17.10;99.90
42743;DHT22;28397;44.552;-0.848;2022-09-27T17:46:16;17.00;99.90
42743;DHT22;28397;44.552;-0.848;2022-09-27T17:48:42;17.00;99.90
42743;DHT22;28397;44.552;-0.848;2022-09-27T17:51:26;17.00;99.90
42743;DHT22;28397;44.552;-0.848;2022-09-27T17:53:53;17.00;99.90
42743;DHT22;28397;44.552;-0.848;2022-09-27T17:56:19;16.90;99.90
42743;DHT22;28397;44.552;-0.848;2022-09-27T17:58:48;16.90;99.90
42743;DHT22;28397;44.552;-0.848;2022-09-27T18:01:16;16.90;99.90
42743;DHT22;28397;44.552;-0.848;2022-09-27T18:03:42;16.90;99.90
42743;DHT22;28397;44.552;-0.848;2022-09-27T18:06:10;16.90;99.90
42743;DHT22;28397;44.552;-0.848;2022-09-27T18:08:36;16.90;99.90
42743;DHT22;28397;44.552;-0.848;2022-09-27T18:11:10;16.80;99.90
42743;DHT22;28397;44.552;-0.848;2022-09-27T18:13:36;16.80;99.90
42743;DHT22;28397;44.552;-0.848;2022-09-27T18:16:16;16.80;99.90
42743;DHT22;28397;44.552;-0.848;2022-09-27T18:18:44;16.80;99.90
42743;DHT22;28397;44.552;-0.848;2022-09-27T18:21:13;16.90;99.90
42743;DHT22;28397;44.552;-0.848;2022-09-27T18:23:41;16.90;99.90
42743;DHT22;28397;44.552;-0.848;2022-09-27T18:26:07;16.90;99.90
42743;DHT22;28397;44.552;-0.848;2022-09-27T18:28:39;17.00;99.90